Time;durP1;ratioP1;P1;durP2;ratioP2;P2;SDS_P1;SDS_P2;PMS_P1;PMS_P2;Temp;Humidity;BMP_temperature;BMP_pressure;BME280_temperature;BME280_humidity;BME280_pressure;Samples;Min_cycle;Max_cycle;Signal;HPM_P1;HPM_P2
2023/05/13 00:01:37;;;;;;;10.25;5.50;;;;;;;12.20;100.00;102263.53;5017931;28;20057;-83
2023/05/13 00:04:06;;;;;;;7.72;4.80;;;;;;;12.18;100.00;102262.63;4966153;28;20065;-83
2023/05/13 00:06:34;;;;;;;5.93;5.03;;;;;;;12.17;100.00;102255.53;5010725;28;20503;-82
2023/05/13 00:09:03;;;;;;;9.50;5.20;;;;;;;12.15;100.00;102259.91;5008337;28;21820;-83
2023/05/13 00:11:31;;;;;;;8.40;4.93;;;;;;;12.15;100.00;102251.09;5008761;28;20061;-83
2023/05/13 00:13:58;;;;;;;10.73;5.45;;;;;;;12.14;100.00;102255.50;5012359;28;20053;-82
2023/05/13 00:16:27;;;;;;;6.28;4.43;;;;;;;12.12;100.00;102257.25;5002719;28;20046;-83
2023/05/13 00:18:55;;;;;;;8.32;5.32;;;;;;;12.12;100.00;102253.69;4983768;28;20052;-82
2023/05/13 00:21:23;;;;;;;6.03;5.05;;;;;;;12.08;100.00;102250.13;5015217;28;20046;-83
2023/05/13 00:23:50;;;;;;;8.13;5.30;;;;;;;12.06;100.00;102254.44;5002997;28;20056;-82
2023/05/13 00:26:18;;;;;;;8.23;4.80;;;;;;;12.04;100.00;102254.44;5024292;28;20042;-82
2023/05/13 00:28:48;;;;;;;11.00;5.20;;;;;;;12.02;100.00;102249.97;5016468;28;20060;-82
2023/05/13 00:31:15;;;;;;;7.50;5.28;;;;;;;12.01;100.00;102246.44;5012990;28;20492;-83
2023/05/13 00:33:43;;;;;;;7.25;5.35;;;;;;;11.99;100.00;102248.16;4990313;28;20049;-81
2023/05/13 00:36:11;;;;;;;6.60;4.82;;;;;;;11.98;100.00;102240.22;4988976;28;20037;-82
2023/05/13 00:38:38;;;;;;;5.82;5.10;;;;;;;11.95;100.00;102243.69;4998742;28;20081;-83
2023/05/13 00:41:07;;;;;;;10.70;5.90;;;;;;;11.92;100.00;102248.91;4969953;28;20175;-82
2023/05/13 00:43:34;;;;;;;6.70;5.30;;;;;;;11.91;100.00;102239.22;5000848;28;20049;-83
2023/05/13 00:46:02;;;;;;;8.75;5.22;;;;;;;11.89;100.00;102240.91;5011172;28;20462;-82
2023/05/13 00:48:32;;;;;;;10.65;5.95;;;;;;;11.88;100.00;102244.41;5010571;28;20054;-83
2023/05/13 00:50:59;;;;;;;6.77;6.07;;;;;;;11.86;100.00;102243.47;4960148;28;20049;-82
2023/05/13 00:53:27;;;;;;;8.32;5.88;;;;;;;11.84;100.00;102238.16;4997427;28;20517;-82
2023/05/13 00:55:54;;;;;;;8.77;5.72;;;;;;;11.83;100.00;102243.41;4991970;28;20041;-82
2023/05/13 00:58:22;;;;;;;7.60;5.57;;;;;;;11.81;100.00;102248.66;4986466;28;20407;-83
2023/05/13 01:01:16;;;;;;;7.68;5.22;;;;;;;11.81;100.00;102250.41;5014889;28;20046;-81
2023/05/13 01:03:58;;;;;;;8.82;5.97;;;;;;;11.80;100.00;102254.81;5014111;28;20050;-82
2023/05/13 01:06:35;;;;;;;7.03;5.22;;;;;;;11.78;100.00;102253.88;4973621;28;20037;-82
2023/05/13 01:09:15;;;;;;;11.55;5.65;;;;;;;11.78;100.00;102245.97;5012100;28;20074;-82
2023/05/13 01:11:44;;;;;;;7.50;5.78;;;;;;;11.75;100.00;102243.25;5017099;28;20049;-81
2023/05/13 01:14:18;;;;;;;7.03;5.38;;;;;;;11.73;100.00;102238.81;5021598;28;20046;-82
2023/05/13 01:17:17;;;;;;;7.40;6.13;;;;;;;11.72;100.00;102237.91;5017632;28;20046;-82
2023/05/13 01:19:58;;;;;;;8.75;5.78;;;;;;;11.73;100.00;102249.38;4984220;28;20347;-81
2023/05/13 01:22:26;;;;;;;7.25;5.15;;;;;;;11.73;100.00;102238.81;5022166;28;20054;-83
2023/05/13 01:24:54;;;;;;;7.43;6.00;;;;;;;11.73;100.00;102246.72;4994350;28;20049;-80
2023/05/13 01:27:22;;;;;;;6.35;5.70;;;;;;;11.72;100.00;102243.19;4996275;28;20054;-82
2023/05/13 01:29:52;;;;;;;8.77;6.38;;;;;;;11.69;100.00;102246.66;4987566;28;20053;-82
2023/05/13 01:32:24;;;;;;;14.68;7.00;;;;;;;11.69;100.00;102245.75;5016221;28;20057;-82
2023/05/13 01:34:54;;;;;;;7.00;6.30;;;;;;;11.67;100.00;102245.72;4996711;28;20056;-82
2023/05/13 01:37:22;;;;;;;7.00;5.53;;;;;;;11.66;100.00;102246.59;4966540;28;20091;-83
2023/05/13 01:39:51;;;;;;;10.88;6.07;;;;;;;11.64;100.00;102248.28;4992597;28;20053;-82
2023/05/13 01:42:18;;;;;;;8.32;6.13;;;;;;;11.63;100.00;102245.66;5008838;28;20089;-81
2023/05/13 01:44:46;;;;;;;7.28;6.20;;;;;;;11.63;100.00;102246.53;5006622;28;20041;-82
2023/05/13 01:47:14;;;;;;;8.45;5.63;;;;;;;11.64;100.00;102242.13;4995922;28;20057;-80
2023/05/13 01:49:42;;;;;;;9.35;6.00;;;;;;;11.63;100.00;102246.53;4999052;28;20076;-82
2023/05/13 01:52:09;;;;;;;9.93;6.32;;;;;;;11.61;100.00;102245.59;4950620;28;20050;-81
2023/05/13 01:54:37;;;;;;;7.55;5.88;;;;;;;11.58;100.00;102245.53;4982990;28;20448;-83
2023/05/13 01:57:08;;;;;;;9.65;6.22;;;;;;;11.57;100.00;102233.22;4996353;28;20049;-81
2023/05/13 01:59:36;;;;;;;9.07;6.20;;;;;;;11.56;100.00;102241.09;5000254;28;20167;-82
2023/05/13 02:02:04;;;;;;;9.88;6.47;;;;;;;11.55;100.00;102245.47;4984671;28;20399;-82
2023/05/13 02:04:32;;;;;;;12.60;6.40;;;;;;;11.54;100.00;102243.69;4996347;28;20054;-83
2023/05/13 02:07:00;;;;;;;11.20;6.47;;;;;;;11.54;100.00;102241.03;4960682;28;20038;-83
2023/05/13 02:09:29;;;;;;;10.05;6.75;;;;;;;11.51;100.00;102244.53;4986516;28;20046;-83
2023/05/13 02:11:58;;;;;;;7.57;6.28;;;;;;;11.51;100.00;102243.59;4995328;28;20059;-83
2023/05/13 02:14:25;;;;;;;7.80;6.28;;;;;;;11.50;100.00;102244.47;4987698;28;20057;-83
2023/05/13 02:16:53;;;;;;;8.23;5.97;;;;;;;11.49;100.00;102240.03;5033035;28;20037;-83
2023/05/13 02:19:22;;;;;;;9.18;7.22;;;;;;;11.45;100.00;102246.13;5012857;28;20080;-83
2023/05/13 02:21:49;;;;;;;9.02;6.90;;;;;;;11.43;100.00;102248.72;4978994;28;20041;-85
2023/05/13 02:24:16;;;;;;;12.48;7.10;;;;;;;11.42;100.00;102248.72;5030806;28;20045;-82
2023/05/13 02:26:46;;;;;;;8.73;6.25;;;;;;;11.41;100.00;102253.09;4997672;28;20068;-83
2023/05/13 02:29:14;;;;;;;7.90;6.70;;;;;;;11.42;100.00;102254.00;4980094;28;20057;-82
2023/05/13 02:31:42;;;;;;;7.40;6.57;;;;;;;11.41;100.00;102252.19;5025071;28;20065;-83
2023/05/13 02:34:11;;;;;;;12.30;7.05;;;;;;;11.40;100.00;102253.03;4990607;28;20049;-82
2023/05/13 02:36:38;;;;;;;14.73;7.15;;;;;;;11.40;100.00;102255.69;5014334;28;20045;-83
2023/05/13 02:39:05;;;;;;;9.80;7.45;;;;;;;11.38;100.00;102249.47;4957488;28;20394;-83
2023/05/13 02:41:34;;;;;;;10.13;7.65;;;;;;;11.36;100.00;102249.47;5007941;28;20526;-83
2023/05/13 02:44:03;;;;;;;11.50;7.70;;;;;;;11.34;100.00;102247.63;4992008;28;20054;-82
2023/05/13 02:46:31;;;;;;;11.18;8.00;;;;;;;11.32;100.00;102253.78;4971067;28;20046;-83
2023/05/13 02:48:59;;;;;;;11.07;8.07;;;;;;;11.31;100.00;102252.00;5011378;28;20046;-82
2023/05/13 02:51:29;;;;;;;12.00;8.45;;;;;;;11.31;100.00;102245.81;5010512;28;20053;-83
2023/05/13 02:53:57;;;;;;;10.77;8.25;;;;;;;11.30;100.00;102242.31;4952163;28;20030;-82
2023/05/13 02:56:26;;;;;;;12.57;8.68;;;;;;;11.30;100.00;102251.94;4992515;28;20496;-83
2023/05/13 02:58:53;;;;;;;14.25;8.38;;;;;;;11.27;100.00;102238.72;5006700;28;20050;-81
2023/05/13 03:01:21;;;;;;;8.90;7.90;;;;;;;11.26;100.00;102244.81;5004294;28;20053;-80
2023/05/13 03:03:49;;;;;;;12.73;7.65;;;;;;;11.25;100.00;102246.59;4989606;28;20064;-82
2023/05/13 03:06:16;;;;;;;8.75;7.72;;;;;;;11.24;100.00;102247.41;4997087;28;20053;-81
2023/05/13 03:08:44;;;;;;;11.93;7.63;;;;;;;11.23;100.00;102248.28;4956593;28;20057;-80
2023/05/13 03:11:12;;;;;;;12.48;7.22;;;;;;;11.22;100.00;102245.63;4993111;28;20431;-83
2023/05/13 03:13:39;;;;;;;8.98;7.85;;;;;;;11.22;100.00;102245.63;4992736;28;20127;-84
2023/05/13 03:16:10;;;;;;;13.32;8.55;;;;;;;11.20;100.00;102244.69;5027353;28;20060;-82
2023/05/13 03:18:38;;;;;;;13.85;7.60;;;;;;;11.19;100.00;102251.72;5026485;28;20048;-84
2023/05/13 03:21:05;;;;;;;12.57;7.55;;;;;;;11.19;100.00;102246.44;4981178;28;20410;-81
2023/05/13 03:23:33;;;;;;;13.02;7.85;;;;;;;11.19;100.00;102250.81;4974346;28;20049;-84
2023/05/13 03:26:02;;;;;;;13.27;8.75;;;;;;;11.21;100.00;102257.00;5010141;28;20366;-82
2023/05/13 03:28:30;;;;;;;10.75;8.23;;;;;;;11.21;100.00;102257.00;4986544;28;20484;-83
2023/05/13 03:30:58;;;;;;;11.57;8.25;;;;;;;11.21;100.00;102252.66;5010761;28;20407;-83
2023/05/13 03:33:28;;;;;;;15.90;7.80;;;;;;;11.22;100.00;102250.91;4964441;28;20057;-83
2023/05/13 03:35:56;;;;;;;11.88;8.90;;;;;;;11.23;100.00;102253.56;5013356;28;20042;-82
2023/05/13 03:38:28;;;;;;;15.00;8.63;;;;;;;11.25;100.00;102246.59;5011068;28;20530;-83
2023/05/13 03:40:56;;;;;;;16.77;7.82;;;;;;;11.28;100.00;102257.19;4972027;28;20045;-83
2023/05/13 03:43:24;;;;;;;13.38;7.82;;;;;;;11.29;100.00;102251.06;4980793;28;20073;-83
2023/05/13 03:45:56;;;;;;;11.82;8.05;;;;;;;11.31;100.00;102252.00;5005757;28;20057;-83
2023/05/13 03:48:25;;;;;;;14.23;7.85;;;;;;;11.32;100.00;102251.16;4986200;28;20045;-82
2023/05/13 03:50:56;;;;;;;13.07;7.75;;;;;;;11.32;100.00;102253.78;4993674;28;20061;-83
2023/05/13 03:53:24;;;;;;;12.60;7.20;;;;;;;11.34;100.00;102252.91;4977260;28;20049;-82
2023/05/13 03:55:53;;;;;;;12.88;7.57;;;;;;;11.36;100.00;102257.38;4988156;28;20529;-83
2023/05/13 03:58:23;;;;;;;20.27;8.60;;;;;;;11.38;100.00;102249.47;5010488;28;20403;-82
2023/05/13 04:00:50;;;;;;;12.48;7.40;;;;;;;11.41;100.00;102254.84;5013710;28;20041;-82
2023/05/13 04:03:18;;;;;;;18.38;8.32;;;;;;;11.40;100.00;102256.59;4990287;28;20068;-82
2023/05/13 04:05:46;;;;;;;16.00;7.60;;;;;;;11.43;100.00;102256.63;4989263;28;20053;-82
2023/05/13 04:08:18;;;;;;;11.85;8.90;;;;;;;11.44;100.00;102253.16;4998977;28;20346;-82
2023/05/13 04:10:46;;;;;;;14.27;8.07;;;;;;;11.47;100.00;102255.88;4991660;28;20057;-82
2023/05/13 04:13:13;;;;;;;14.25;7.97;;;;;;;11.49;100.00;102263.81;4970157;28;20057;-82
2023/05/13 04:15:42;;;;;;;12.40;7.70;;;;;;;11.52;100.00;102262.13;5002453;28;20053;-82
2023/05/13 04:18:10;;;;;;;11.88;7.03;;;;;;;11.59;100.00;102265.81;5023158;28;20052;-81
2023/05/13 04:20:38;;;;;;;10.85;8.13;;;;;;;11.66;100.00;102266.81;5038662;28;20045;-82
2023/05/13 04:23:06;;;;;;;12.18;7.70;;;;;;;11.71;100.00;102275.72;4987841;28;20045;-82
2023/05/13 04:25:38;;;;;;;18.05;8.02;;;;;;;11.74;100.00;102283.72;4980398;28;20151;-82
2023/05/13 04:28:06;;;;;;;9.90;6.72;;;;;;;11.76;100.00;102281.09;4955773;28;20125;-82
2023/05/13 04:30:38;;;;;;;10.60;7.43;;;;;;;11.78;100.00;102285.56;4993300;28;20518;-82
2023/05/13 04:33:06;;;;;;;11.40;6.93;;;;;;;11.80;100.00;102277.69;4977223;28;20045;-83
2023/05/13 04:35:35;;;;;;;13.48;8.30;;;;;;;11.83;100.00;102283.94;4986588;28;20041;-83
2023/05/13 04:38:04;;;;;;;12.65;8.00;;;;;;;12.06;100.00;102289.72;5026213;28;20045;-81
2023/05/13 04:40:32;;;;;;;12.80;7.60;;;;;;;12.64;100.00;102281.09;4990043;28;20065;-83
2023/05/13 04:43:05;;;;;;;8.38;6.97;;;;;;;13.31;100.00;102285.72;4950987;28;20054;-82
2023/05/13 04:45:39;;;;;;;9.48;6.70;;;;;;;13.94;100.00;102275.97;5033739;28;20058;-83
2023/05/13 04:48:09;;;;;;;8.87;5.70;;;;;;;14.58;100.00;102279.34;5029273;28;20052;-82
2023/05/13 04:50:36;;;;;;;11.85;5.78;;;;;;;15.09;100.00;102274.47;4988790;28;20295;-82
2023/05/13 04:53:05;;;;;;;8.10;5.32;;;;;;;15.60;100.00;102280.97;5014714;28;20041;-81
2023/05/13 04:55:33;;;;;;;9.50;5.72;;;;;;;16.09;100.00;102284.78;4990876;28;20053;-82
2023/05/13 04:58:03;;;;;;;9.63;5.30;;;;;;;16.59;100.00;102275.09;4980991;28;20494;-81
2023/05/13 05:00:31;;;;;;;8.90;4.95;;;;;;;16.93;100.00;102276.03;4994106;28;20048;-81
2023/05/13 05:02:59;;;;;;;9.73;4.78;;;;;;;17.40;100.00;102277.75;5014204;28;20072;-81
2023/05/13 05:05:26;;;;;;;7.60;4.60;;;;;;;17.79;100.00;102280.28;4960552;28;20046;-82
2023/05/13 05:07:54;;;;;;;6.38;5.20;;;;;;;17.79;100.00;102285.59;4985958;28;20076;-82
2023/05/13 05:10:22;;;;;;;12.27;5.50;;;;;;;17.89;100.00;102285.59;4969757;28;20048;-82
2023/05/13 05:12:53;;;;;;;7.07;4.70;;;;;;;18.15;100.00;102284.59;4993788;28;20411;-82
2023/05/13 05:15:21;;;;;;;8.90;4.65;;;;;;;18.29;100.00;102282.72;4955013;28;20500;-82
2023/05/13 05:17:52;;;;;;;11.00;4.65;;;;;;;18.19;100.00;102296.16;5025298;28;20516;-82
2023/05/13 05:20:20;;;;;;;8.50;4.90;;;;;;;17.91;100.00;102288.28;5012027;28;20045;-82
2023/05/13 05:22:49;;;;;;;7.53;4.97;;;;;;;17.52;100.00;102295.47;5006302;28;20052;-82
2023/05/13 05:25:19;;;;;;;5.80;4.70;;;;;;;17.42;100.00;102297.28;4988257;28;20056;-82
2023/05/13 05:27:46;;;;;;;13.60;5.53;;;;;;;17.01;100.00;102295.53;4997795;28;20050;-81
2023/05/13 05:30:15;;;;;;;7.53;5.10;;;;;;;16.71;100.00;102299.97;4953746;28;20073;-82
2023/05/13 05:32:47;;;;;;;7.55;5.60;;;;;;;16.60;100.00;102300.81;4998484;28;20060;-81
2023/05/13 05:35:18;;;;;;;8.30;5.43;;;;;;;16.68;100.00;102297.28;4996293;28;20041;-82
2023/05/13 05:37:46;;;;;;;;;;;;;;;16.92;100.00;102299.13;5032679;28;20046;-82
2023/05/13 05:40:13;;;;;;;6.40;5.07;;;;;;;17.35;100.00;102300.84;5016892;28;19921;-82
2023/05/13 05:42:41;;;;;;;5.97;5.03;;;;;;;17.53;100.00;102298.13;4985373;28;20045;-82
2023/05/13 05:45:08;;;;;;;7.75;4.50;;;;;;;17.83;100.00;102290.94;4974667;28;20064;-83
2023/05/13 05:47:38;;;;;;;6.47;4.43;;;;;;;18.10;100.00;102291.72;5004150;28;20053;-81
2023/05/13 05:50:06;;;;;;;8.18;4.60;;;;;;;18.43;100.00;102298.66;5031027;28;20499;-82
2023/05/13 05:52:34;;;;;;;10.65;4.43;;;;;;;18.72;100.00;102302.03;4980378;28;20060;-82
2023/05/13 05:55:02;;;;;;;7.75;4.30;;;;;;;18.92;100.00;102294.75;5004436;28;20391;-82
2023/05/13 05:57:30;;;;;;;6.88;4.78;;;;;;;19.11;100.00;102313.28;4987821;28;20048;-80
2023/05/13 05:59:57;;;;;;;6.85;4.50;;;;;;;19.14;100.00;102299.91;5012898;28;20129;-80
2023/05/13 06:02:24;;;;;;;6.75;4.13;;;;;;;19.25;100.00;102304.25;4994222;28;20049;-82
2023/05/13 06:04:52;;;;;;;6.03;4.63;;;;;;;19.14;100.00;102294.56;5011801;28;20056;-81
2023/05/13 06:07:20;;;;;;;12.38;4.75;;;;;;;18.96;99.54;102308.97;4997924;28;20050;-82
2023/05/13 06:09:48;;;;;;;7.40;4.18;;;;;;;18.78;100.00;102302.84;4994788;28;20403;-83
2023/05/13 06:12:15;;;;;;;8.63;4.47;;;;;;;18.70;100.00;102308.25;4988362;28;20072;-82
2023/05/13 06:14:42;;;;;;;7.75;4.82;;;;;;;18.43;99.38;102305.75;4984953;28;20057;-81
2023/05/13 06:17:13;;;;;;;5.78;4.82;;;;;;;18.11;100.00;102302.41;4988680;28;20042;-82
2023/05/13 06:19:45;;;;;;;9.43;5.03;;;;;;;17.92;100.00;102298.94;5012267;28;20064;-81
2023/05/13 06:22:14;;;;;;;8.45;4.93;;;;;;;17.70;100.00;102305.19;5014037;28;20049;-81
2023/05/13 06:24:43;;;;;;;10.50;5.32;;;;;;;17.43;100.00;102301.72;5012505;28;20053;-81
2023/05/13 06:27:13;;;;;;;;;;;;;;;17.20;100.00;102299.09;4997847;28;20058;-82
2023/05/13 06:29:42;;;;;;;11.90;5.22;;;;;;;17.07;100.00;102300.88;4987786;28;19922;-81
2023/05/13 06:32:09;;;;;;;8.95;5.35;;;;;;;16.93;100.00;102300.88;4965803;28;20061;-81
2023/05/13 06:34:44;;;;;;;8.18;5.90;;;;;;;16.77;100.00;102293.75;4995783;28;20058;-82
2023/05/13 06:37:15;;;;;;;8.52;5.10;;;;;;;16.61;100.00;102306.16;4975449;28;20169;-82
2023/05/13 06:39:43;;;;;;;9.77;5.30;;;;;;;16.45;100.00;102294.59;4988553;28;20050;-82
2023/05/13 06:42:11;;;;;;;7.88;5.47;;;;;;;16.41;100.00;102303.47;4995393;28;20050;-82
2023/05/13 06:44:46;;;;;;;10.75;5.55;;;;;;;16.32;100.00;102304.31;5014445;28;20049;-82
2023/05/13 06:47:15;;;;;;;8.73;5.22;;;;;;;16.22;100.00;102307.84;4938517;28;20042;-81
2023/05/13 06:49:43;;;;;;;9.95;5.15;;;;;;;16.21;100.00;102310.50;4962330;28;20058;-82
2023/05/13 06:52:10;;;;;;;6.07;5.40;;;;;;;16.19;100.00;102310.50;4975064;28;20054;-82
2023/05/13 06:54:39;;;;;;;6.90;5.32;;;;;;;16.18;100.00;102304.28;4991485;28;20057;-82
2023/05/13 06:57:06;;;;;;;14.80;5.28;;;;;;;16.17;100.00;102317.59;4968334;28;20054;-81
2023/05/13 06:59:34;;;;;;;6.93;5.35;;;;;;;16.06;100.00;102316.66;4987274;28;20050;-81
2023/05/13 07:02:02;;;;;;;9.68;5.32;;;;;;;15.89;100.00;102305.94;4963952;28;20046;-81
2023/05/13 07:04:29;;;;;;;7.65;5.32;;;;;;;15.91;100.00;102310.38;4985199;28;20061;-82
2023/05/13 07:06:57;;;;;;;9.05;5.10;;;;;;;15.94;100.00;102312.19;4990078;28;20415;-81
2023/05/13 07:09:24;;;;;;;7.50;5.78;;;;;;;15.94;100.00;102305.09;4988223;28;20046;-82
2023/05/13 07:11:52;;;;;;;8.35;5.28;;;;;;;16.02;100.00;102310.44;5021153;28;20065;-81
2023/05/13 07:14:20;;;;;;;8.82;5.43;;;;;;;16.14;100.00;102306.91;5000450;28;20057;-82
2023/05/13 07:16:47;;;;;;;7.95;5.32;;;;;;;16.29;100.00;102309.63;4981257;28;20049;-82
2023/05/13 07:19:14;;;;;;;8.60;4.95;;;;;;;16.44;100.00;102303.47;4958608;28;20053;-82
2023/05/13 07:21:42;;;;;;;7.30;5.50;;;;;;;16.55;100.00;102301.69;4979868;28;20050;-81
2023/05/13 07:24:09;;;;;;;5.93;4.38;;;;;;;16.71;100.00;102301.72;5005083;28;20535;-82
2023/05/13 07:26:37;;;;;;;8.45;5.30;;;;;;;16.82;100.00;102305.31;4989984;28;20065;-82
2023/05/13 07:29:05;;;;;;;6.45;5.10;;;;;;;16.86;100.00;102299.13;4998801;28;20049;-81
2023/05/13 07:31:33;;;;;;;9.18;5.00;;;;;;;16.93;100.00;102302.66;4961383;28;20058;-81
2023/05/13 07:34:00;;;;;;;14.57;5.43;;;;;;;17.12;100.00;102301.75;4944581;28;20069;-81
2023/05/13 07:36:28;;;;;;;8.82;5.63;;;;;;;17.26;100.00;102315.06;4972905;28;20049;-82
2023/05/13 07:39:00;;;;;;;9.32;4.93;;;;;;;17.33;100.00;102311.53;4978580;28;20050;-82
2023/05/13 07:41:28;;;;;;;7.30;5.38;;;;;;;17.34;100.00;102310.63;4982440;28;20049;-83
2023/05/13 07:43:55;;;;;;;9.13;5.38;;;;;;;17.28;100.00;102301.75;4995950;28;20492;-82
2023/05/13 07:46:23;;;;;;;10.60;5.70;;;;;;;17.26;100.00;102311.53;5001537;28;20539;-81
2023/05/13 07:48:50;;;;;;;7.25;5.57;;;;;;;17.15;100.00;102315.06;4955760;28;20049;-81
2023/05/13 07:51:17;;;;;;;13.23;5.65;;;;;;;17.07;100.00;102313.28;4977213;28;20053;-82
2023/05/13 07:53:45;;;;;;;6.00;5.43;;;;;;;17.01;100.00;102306.19;5019476;28;20041;-81
2023/05/13 07:56:13;;;;;;;7.03;4.60;;;;;;;17.04;100.00;102308.88;4981493;28;20054;-82
2023/05/13 07:58:41;;;;;;;10.68;5.38;;;;;;;17.15;100.00;102307.09;4975952;28;20069;-81
2023/05/13 08:01:09;;;;;;;9.18;5.22;;;;;;;17.32;100.00;102316.84;5034211;28;20050;-82
2023/05/13 08:03:36;;;;;;;8.40;5.18;;;;;;;17.41;100.00;102311.50;4951350;28;20050;-81
2023/05/13 08:06:04;;;;;;;7.18;5.35;;;;;;;17.41;100.00;102315.91;4972607;28;20058;-82
2023/05/13 08:08:32;;;;;;;9.00;5.82;;;;;;;17.39;100.00;102310.63;4995355;28;20065;-83
2023/05/13 08:10:59;;;;;;;9.57;5.68;;;;;;;17.40;100.00;102309.72;5020109;28;20046;-82
2023/05/13 08:13:26;;;;;;;7.60;5.57;;;;;;;17.42;100.00;102307.06;4978860;28;20057;-83
2023/05/13 08:15:54;;;;;;;10.82;5.32;;;;;;;17.46;100.00;102309.69;5011917;28;20041;-82
2023/05/13 08:18:22;;;;;;;10.25;4.65;;;;;;;17.48;100.00;102310.56;5003692;28;20049;-81
2023/05/13 08:20:49;;;;;;;9.55;6.15;;;;;;;17.54;100.00;102305.25;4975074;28;20056;-81
2023/05/13 08:23:17;;;;;;;7.97;5.88;;;;;;;17.61;100.00;102313.22;4986203;28;20061;-83
2023/05/13 08:25:52;;;;;;;13.15;5.55;;;;;;;17.60;100.00;102307.00;4988825;28;20050;-82
2023/05/13 08:28:20;;;;;;;9.40;5.65;;;;;;;17.66;100.00;102306.13;4989088;28;20101;-83
2023/05/13 08:30:47;;;;;;;9.10;4.90;;;;;;;17.68;100.00;102310.53;4963842;28;20150;-82
2023/05/13 08:33:15;;;;;;;9.48;5.05;;;;;;;17.78;100.00;102310.50;5018032;28;20068;-82
2023/05/13 08:35:42;;;;;;;7.15;4.80;;;;;;;17.87;100.00;102305.19;4957365;28;20900;-81
2023/05/13 08:38:11;;;;;;;9.80;4.80;;;;;;;17.91;100.00;102307.81;4989984;28;20415;-82
2023/05/13 08:40:40;;;;;;;7.60;4.95;;;;;;;18.01;100.00;102310.44;5015585;28;20049;-81
2023/05/13 08:43:09;;;;;;;7.53;4.75;;;;;;;18.05;100.00;102309.53;4998003;28;20046;-82
2023/05/13 08:45:38;;;;;;;6.55;5.15;;;;;;;18.08;100.00;102314.88;5004534;28;20050;-80
2023/05/13 08:48:06;;;;;;;10.70;5.13;;;;;;;18.13;100.00;102315.75;4979692;28;20049;-81
2023/05/13 08:50:33;;;;;;;8.27;5.30;;;;;;;18.18;100.00;102313.03;5001455;28;20372;-80
2023/05/13 08:53:01;;;;;;;6.15;4.38;;;;;;;18.20;100.00;102314.78;4990457;28;20091;-83
2023/05/13 08:55:29;;;;;;;6.63;4.50;;;;;;;18.24;100.00;102311.22;5007267;28;20046;-82
2023/05/13 08:57:57;;;;;;;7.40;4.93;;;;;;;18.22;100.00;102312.13;5008656;28;20057;-81
2023/05/13 09:00:24;;;;;;;8.80;5.18;;;;;;;18.24;100.00;102305.91;5000649;28;20042;-82
2023/05/13 09:02:53;;;;;;;7.95;5.03;;;;;;;18.29;100.00;102308.53;4988758;28;20057;-84
2023/05/13 09:05:21;;;;;;;8.90;4.55;;;;;;;18.37;100.00;102316.47;4981731;28;20069;-82
2023/05/13 09:07:49;;;;;;;7.50;4.28;;;;;;;18.46;100.00;102308.41;4947181;28;20038;-82
2023/05/13 09:10:17;;;;;;;4.90;4.50;;;;;;;18.51;100.00;102312.84;4994415;28;20077;-82
2023/05/13 09:12:52;;;;;;;8.25;5.60;;;;;;;18.59;100.00;102314.56;5008880;28;20050;-82
2023/05/13 09:15:25;;;;;;;9.00;5.90;;;;;;;18.65;100.00;102318.06;4997298;28;20045;-83
2023/05/13 09:18:02;;;;;;;5.88;5.10;;;;;;;18.66;100.00;102324.31;4986854;28;20487;-82
2023/05/13 09:20:32;;;;;;;9.35;5.40;;;;;;;18.66;100.00;102319.84;5008262;28;20041;-81
2023/05/13 09:23:14;;;;;;;9.57;6.10;;;;;;;18.73;100.00;102322.47;4964882;28;20049;-81
2023/05/13 09:25:42;;;;;;;8.32;5.38;;;;;;;18.80;100.00;102321.53;4988888;28;20507;-83
2023/05/13 09:28:13;;;;;;;9.15;6.63;;;;;;;18.84;100.00;102317.97;4992383;28;20034;-82
2023/05/13 09:30:44;;;;;;;8.57;6.10;;;;;;;18.85;100.00;102306.41;5001345;28;20447;-81
2023/05/13 09:33:21;;;;;;;9.73;5.93;;;;;;;18.85;100.00;102317.97;4966263;28;20064;-80
2023/05/13 09:35:53;;;;;;;8.25;6.10;;;;;;;18.83;100.00;102303.75;5023704;28;20041;-82
2023/05/13 09:38:25;;;;;;;7.30;4.88;;;;;;;18.86;100.00;102305.50;5005055;28;20069;-80
2023/05/13 09:40:55;;;;;;;7.40;5.75;;;;;;;18.89;100.00;102309.03;4996210;28;20046;-81
2023/05/13 09:43:25;;;;;;;8.30;5.13;;;;;;;18.94;100.00;102308.09;5010617;28;20053;-84
2023/05/13 09:45:53;;;;;;;;;;;;;;;18.98;100.00;102302.72;4983491;28;20049;-83
2023/05/13 09:48:25;;;;;;;7.85;4.80;;;;;;;19.03;100.00;102306.22;5002133;28;19929;-82
2023/05/13 09:50:54;;;;;;;8.38;5.05;;;;;;;19.09;100.00;102295.50;5013974;28;20507;-82
2023/05/13 09:53:22;;;;;;;7.03;4.60;;;;;;;19.15;100.00;102297.25;4994643;28;20050;-83
2023/05/13 09:55:52;;;;;;;5.07;4.57;;;;;;;19.23;100.00;102297.16;4971907;28;20156;-86
2023/05/13 09:58:20;;;;;;;9.95;4.88;;;;;;;19.32;100.00;102298.84;4993350;28;20062;-84
2023/05/13 10:00:48;;;;;;;6.68;4.30;;;;;;;19.39;100.00;102295.19;5011350;28;20075;-85
2023/05/13 10:03:15;;;;;;;6.97;4.05;;;;;;;19.43;100.00;102292.50;5010027;28;20053;-84
2023/05/13 10:05:43;;;;;;;7.03;4.05;;;;;;;19.51;100.00;102289.75;4985984;28;20080;-83
2023/05/13 10:08:14;;;;;;;9.05;5.10;;;;;;;19.63;100.00;102291.38;5011490;28;20049;-84
2023/05/13 10:10:44;;;;;;;14.13;5.07;;;;;;;19.66;100.00;102286.00;4984768;28;20038;-85
2023/05/13 10:13:14;;;;;;;7.75;4.75;;;;;;;19.71;100.00;102294.84;5012912;28;20058;-85
2023/05/13 10:15:51;;;;;;;7.28;4.65;;;;;;;19.72;100.00;102287.72;5013461;28;20054;-84
2023/05/13 10:18:21;;;;;;;7.97;4.90;;;;;;;19.71;100.00;102286.81;5008229;28;20042;-86
2023/05/13 10:20:54;;;;;;;9.20;4.75;;;;;;;19.79;100.00;102287.66;4989263;28;20157;-86
2023/05/13 10:23:26;;;;;;;7.45;4.72;;;;;;;19.83;100.00;102283.16;4998417;28;20054;-85
2023/05/13 10:25:55;;;;;;;5.75;4.70;;;;;;;19.82;100.00;102292.94;4984260;28;20049;-88
2023/05/13 10:28:24;;;;;;;6.85;4.15;;;;;;;19.84;100.00;102288.47;4984375;28;20057;-86
2023/05/13 10:30:51;;;;;;;4.97;3.75;;;;;;;19.91;100.00;102285.75;4999213;28;20041;-85
2023/05/13 10:33:19;;;;;;;13.18;4.85;;;;;;;20.00;100.00;102280.25;5016054;28;20061;-86
2023/05/13 10:35:59;;;;;;;7.68;4.15;;;;;;;20.12;100.00;102277.41;4989673;28;20050;-86
2023/05/13 10:38:35;;;;;;;7.55;4.70;;;;;;;20.21;100.00;102269.25;5030145;28;20068;-85
2023/05/13 10:41:25;;;;;;;10.13;6.15;;;;;;;20.31;100.00;102272.69;5006109;28;20053;-86
2023/05/13 10:43:57;;;;;;;8.98;6.07;;;;;;;20.31;100.00;102267.31;4997304;28;20053;-83
2023/05/13 10:46:26;;;;;;;10.98;5.75;;;;;;;20.36;100.00;102265.47;5003699;28;20057;-84
2023/05/13 10:48:58;;;;;;;7.50;6.45;;;;;;;20.42;100.00;102267.16;5023422;28;20049;-83
2023/05/13 10:51:26;;;;;;;10.53;5.93;;;;;;;20.50;100.00;102267.03;5038463;28;20061;-81
2023/05/13 10:53:57;;;;;;;8.18;5.68;;;;;;;20.51;100.00;102268.78;5009966;28;20050;-82
2023/05/13 10:56:27;;;;;;;8.48;5.47;;;;;;;20.55;100.00;102260.72;4998339;28;20506;-84
2023/05/13 10:58:57;;;;;;;9.63;6.63;;;;;;;20.56;100.00;102256.22;4952901;28;20492;-84
2023/05/13 11:01:42;;;;;;;13.35;6.53;;;;;;;20.57;100.00;102258.88;4999594;28;20407;-83
2023/05/13 11:04:14;;;;;;;9.23;6.20;;;;;;;20.62;100.00;102251.72;5013087;28;20053;-85
2023/05/13 11:06:46;;;;;;;9.88;5.95;;;;;;;20.67;100.00;102251.63;5005623;28;20056;-82
2023/05/13 11:09:14;;;;;;;10.27;6.97;;;;;;;20.73;100.00;102240.78;5003688;28;20045;-84
2023/05/13 11:11:46;;;;;;;9.23;4.20;;;;;;;20.76;100.00;102246.09;5009003;28;20056;-84
2023/05/13 11:14:15;;;;;;;5.13;3.58;;;;;;;20.86;100.00;102244.16;4956379;28;20045;-85
2023/05/13 11:16:54;;;;;;;4.18;3.67;;;;;;;20.99;100.00;102245.69;5031916;28;20050;-84
2023/05/13 11:19:32;;;;;;;8.95;3.58;;;;;;;21.12;100.00;102240.13;5003221;28;20041;-84
2023/05/13 11:22:15;;;;;;;7.35;3.40;;;;;;;21.30;100.00;102247.78;5005409;28;20044;-84
2023/05/13 11:25:02;;;;;;;5.88;2.70;;;;;;;21.39;100.00;102244.94;5029205;28;20045;-82